sensor_id;sensor_type;location;lat;lon;timestamp;P1;durP1;ratioP1;P2;durP2;ratioP2
71391;SDS011;59205;50.610;12.638;2022-11-21T00:01:56;5.82;;;3.20;;
71391;SDS011;59205;50.610;12.638;2022-11-21T00:04:21;4.70;;;2.72;;
71391;SDS011;59205;50.610;12.638;2022-11-21T00:06:48;5.30;;;3.08;;
71391;SDS011;59205;50.610;12.638;2022-11-21T00:09:14;3.58;;;2.50;;
71391;SDS011;59205;50.610;12.638;2022-11-21T00:11:40;5.22;;;2.60;;
71391;SDS011;59205;50.610;12.638;2022-11-21T00:14:05;3.08;;;2.33;;
71391;SDS011;59205;50.610;12.638;2022-11-21T00:16:31;2.53;;;1.83;;
71391;SDS011;59205;50.610;12.638;2022-11-21T00:18:56;3.25;;;1.98;;
71391;SDS011;59205;50.610;12.638;2022-11-21T00:21:21;3.70;;;2.10;;
71391;SDS011;59205;50.610;12.638;2022-11-21T00:23:47;3.08;;;2.00;;
71391;SDS011;59205;50.610;12.638;2022-11-21T00:26:13;3.08;;;1.80;;
71391;SDS011;59205;50.610;12.638;2022-11-21T00:28:39;2.60;;;1.90;;
71391;SDS011;59205;50.610;12.638;2022-11-21T00:31:05;2.67;;;1.92;;
71391;SDS011;59205;50.610;12.638;2022-11-21T00:33:33;1.92;;;1.70;;
71391;SDS011;59205;50.610;12.638;2022-11-21T00:36:09;5.00;;;2.10;;
71391;SDS011;59205;50.610;12.638;2022-11-21T00:38:35;21.58;;;10.75;;
71391;SDS011;59205;50.610;12.638;2022-11-21T00:41:00;2.80;;;1.80;;
71391;SDS011;59205;50.610;12.638;2022-11-21T00:43:26;3.22;;;1.88;;
71391;SDS011;59205;50.610;12.638;2022-11-21T00:45:51;2.08;;;1.60;;
71391;SDS011;59205;50.610;12.638;2022-11-21T00:48:16;2.58;;;1.80;;
71391;SDS011;59205;50.610;12.638;2022-11-21T00:50:42;2.30;;;1.80;;
71391;SDS011;59205;50.610;12.638;2022-11-21T00:53:07;2.53;;;1.80;;
71391;SDS011;59205;50.610;12.638;2022-11-21T00:55:33;2.67;;;2.00;;
71391;SDS011;59205;50.610;12.638;2022-11-21T00:58:00;2.15;;;1.60;;
71391;SDS011;59205;50.610;12.638;2022-11-21T01:00:26;1.80;;;1.40;;
71391;SDS011;59205;50.610;12.638;2022-11-21T01:02:51;1.70;;;1.40;;
71391;SDS011;59205;50.610;12.638;2022-11-21T01:05:17;3.47;;;1.80;;
71391;SDS011;59205;50.610;12.638;2022-11-21T01:07:42;1.98;;;1.30;;
71391;SDS011;59205;50.610;12.638;2022-11-21T01:10:07;1.90;;;1.20;;
71391;SDS011;59205;50.610;12.638;2022-11-21T01:12:33;2.30;;;1.27;;
71391;SDS011;59205;50.610;12.638;2022-11-21T01:14:58;1.33;;;1.00;;
71391;SDS011;59205;50.610;12.638;2022-11-21T01:17:24;1.10;;;1.00;;
71391;SDS011;59205;50.610;12.638;2022-11-21T01:19:49;1.50;;;0.90;;
71391;SDS011;59205;50.610;12.638;2022-11-21T01:22:15;1.00;;;0.90;;
71391;SDS011;59205;50.610;12.638;2022-11-21T01:24:40;1.20;;;1.00;;
71391;SDS011;59205;50.610;12.638;2022-11-21T01:27:05;1.50;;;1.10;;
71391;SDS011;59205;50.610;12.638;2022-11-21T01:29:31;1.17;;;0.90;;
71391;SDS011;59205;50.610;12.638;2022-11-21T01:31:56;0.80;;;0.80;;
71391;SDS011;59205;50.610;12.638;2022-11-21T01:34:22;0.80;;;0.80;;
71391;SDS011;59205;50.610;12.638;2022-11-21T01:36:47;0.90;;;0.90;;
71391;SDS011;59205;50.610;12.638;2022-11-21T01:39:12;0.70;;;0.70;;
71391;SDS011;59205;50.610;12.638;2022-11-21T01:41:40;0.85;;;0.85;;
71391;SDS011;59205;50.610;12.638;2022-11-21T01:46:45;0.68;;;0.68;;
71391;SDS011;59205;50.610;12.638;2022-11-21T01:52:08;2.08;;;0.68;;
71391;SDS011;59205;50.610;12.638;2022-11-21T01:54:53;0.98;;;0.85;;
71391;SDS011;59205;50.610;12.638;2022-11-21T02:00:09;1.50;;;1.02;;
71391;SDS011;59205;50.610;12.638;2022-11-21T02:02:41;1.73;;;1.23;;
71391;SDS011;59205;50.610;12.638;2022-11-21T02:05:10;1.20;;;1.10;;
71391;SDS011;59205;50.610;12.638;2022-11-21T02:07:39;2.28;;;1.30;;
71391;SDS011;59205;50.610;12.638;2022-11-21T02:10:07;5.57;;;1.80;;
71391;SDS011;59205;50.610;12.638;2022-11-21T02:12:44;5.22;;;1.73;;
71391;SDS011;59205;50.610;12.638;2022-11-21T02:15:13;2.55;;;1.67;;
71391;SDS011;59205;50.610;12.638;2022-11-21T02:17:39;3.83;;;1.50;;
71391;SDS011;59205;50.610;12.638;2022-11-21T02:20:06;4.50;;;1.88;;
71391;SDS011;59205;50.610;12.638;2022-11-21T02:25:27;3.63;;;2.00;;
71391;SDS011;59205;50.610;12.638;2022-11-21T02:28:05;5.28;;;2.00;;
71391;SDS011;59205;50.610;12.638;2022-11-21T02:30:36;3.58;;;1.95;;
71391;SDS011;59205;50.610;12.638;2022-11-21T02:33:04;5.60;;;2.00;;
71391;SDS011;59205;50.610;12.638;2022-11-21T02:35:30;3.42;;;2.33;;
71391;SDS011;59205;50.610;12.638;2022-11-21T02:37:57;14.00;;;6.15;;
71391;SDS011;59205;50.610;12.638;2022-11-21T02:40:26;3.92;;;1.70;;
71391;SDS011;59205;50.610;12.638;2022-11-21T02:43:03;2.53;;;1.30;;
71391;SDS011;59205;50.610;12.638;2022-11-21T02:45:48;3.67;;;1.60;;
71391;SDS011;59205;50.610;12.638;2022-11-21T02:48:13;2.97;;;1.50;;
71391;SDS011;59205;50.610;12.638;2022-11-21T02:50:41;4.90;;;1.20;;
71391;SDS011;59205;50.610;12.638;2022-11-21T02:53:16;2.65;;;1.17;;
71391;SDS011;59205;50.610;12.638;2022-11-21T02:55:43;1.42;;;1.10;;
71391;SDS011;59205;50.610;12.638;2022-11-21T02:58:09;2.97;;;1.20;;
71391;SDS011;59205;50.610;12.638;2022-11-21T03:00:37;3.05;;;1.10;;
71391;SDS011;59205;50.610;12.638;2022-11-21T03:03:04;2.25;;;1.00;;
71391;SDS011;59205;50.610;12.638;2022-11-21T03:05:30;1.90;;;1.10;;
71391;SDS011;59205;50.610;12.638;2022-11-21T03:07:56;2.08;;;1.10;;
71391;SDS011;59205;50.610;12.638;2022-11-21T03:10:21;1.95;;;1.00;;
71391;SDS011;59205;50.610;12.638;2022-11-21T03:12:47;1.52;;;1.10;;
71391;SDS011;59205;50.610;12.638;2022-11-21T03:15:13;1.35;;;0.93;;
71391;SDS011;59205;50.610;12.638;2022-11-21T03:17:40;1.95;;;1.10;;
71391;SDS011;59205;50.610;12.638;2022-11-21T03:20:06;4.25;;;1.10;;
71391;SDS011;59205;50.610;12.638;2022-11-21T03:22:33;1.52;;;0.95;;
71391;SDS011;59205;50.610;12.638;2022-11-21T03:24:58;3.08;;;1.00;;
71391;SDS011;59205;50.610;12.638;2022-11-21T03:27:24;2.55;;;1.02;;
71391;SDS011;59205;50.610;12.638;2022-11-21T03:29:49;1.23;;;1.00;;
71391;SDS011;59205;50.610;12.638;2022-11-21T03:32:15;2.30;;;1.05;;
71391;SDS011;59205;50.610;12.638;2022-11-21T03:34:40;1.00;;;0.90;;
71391;SDS011;59205;50.610;12.638;2022-11-21T03:37:06;1.92;;;0.88;;
71391;SDS011;59205;50.610;12.638;2022-11-21T03:39:31;2.60;;;0.95;;
71391;SDS011;59205;50.610;12.638;2022-11-21T03:41:56;1.77;;;1.20;;
71391;SDS011;59205;50.610;12.638;2022-11-21T03:44:22;1.80;;;1.00;;
71391;SDS011;59205;50.610;12.638;2022-11-21T03:46:47;1.15;;;1.00;;
71391;SDS011;59205;50.610;12.638;2022-11-21T03:49:13;1.52;;;1.00;;
71391;SDS011;59205;50.610;12.638;2022-11-21T03:51:40;2.70;;;1.23;;
71391;SDS011;59205;50.610;12.638;2022-11-21T03:54:07;4.05;;;1.50;;
71391;SDS011;59205;50.610;12.638;2022-11-21T03:56:32;1.65;;;1.10;;
71391;SDS011;59205;50.610;12.638;2022-11-21T03:58:58;2.85;;;1.20;;
71391;SDS011;59205;50.610;12.638;2022-11-21T04:01:24;1.42;;;1.15;;
71391;SDS011;59205;50.610;12.638;2022-11-21T04:03:50;4.18;;;1.27;;
71391;SDS011;59205;50.610;12.638;2022-11-21T04:06:16;1.98;;;1.10;;
71391;SDS011;59205;50.610;12.638;2022-11-21T04:08:43;1.73;;;0.93;;
71391;SDS011;59205;50.610;12.638;2022-11-21T04:11:09;1.30;;;1.15;;
71391;SDS011;59205;50.610;12.638;2022-11-21T04:13:35;1.55;;;1.10;;
71391;SDS011;59205;50.610;12.638;2022-11-21T04:16:00;3.40;;;1.58;;
71391;SDS011;59205;50.610;12.638;2022-11-21T04:18:26;2.58;;;1.40;;
71391;SDS011;59205;50.610;12.638;2022-11-21T04:20:58;3.25;;;1.30;;
71391;SDS011;59205;50.610;12.638;2022-11-21T04:23:25;2.63;;;1.25;;
71391;SDS011;59205;50.610;12.638;2022-11-21T04:25:51;3.15;;;1.33;;
71391;SDS011;59205;50.610;12.638;2022-11-21T04:28:17;2.42;;;1.35;;
71391;SDS011;59205;50.610;12.638;2022-11-21T04:30:44;1.77;;;1.50;;
71391;SDS011;59205;50.610;12.638;2022-11-21T04:33:10;2.78;;;1.30;;
71391;SDS011;59205;50.610;12.638;2022-11-21T04:35:37;2.85;;;1.35;;
71391;SDS011;59205;50.610;12.638;2022-11-21T04:38:02;2.65;;;1.50;;
71391;SDS011;59205;50.610;12.638;2022-11-21T04:40:28;1.92;;;1.45;;
71391;SDS011;59205;50.610;12.638;2022-11-21T04:42:53;3.63;;;1.60;;
71391;SDS011;59205;50.610;12.638;2022-11-21T04:45:19;3.25;;;1.60;;
71391;SDS011;59205;50.610;12.638;2022-11-21T04:47:45;4.97;;;1.70;;
71391;SDS011;59205;50.610;12.638;2022-11-21T04:50:12;5.38;;;1.90;;
71391;SDS011;59205;50.610;12.638;2022-11-21T04:52:39;2.72;;;1.70;;
71391;SDS011;59205;50.610;12.638;2022-11-21T04:55:06;1.98;;;1.50;;
71391;SDS011;59205;50.610;12.638;2022-11-21T04:57:32;2.30;;;1.55;;
71391;SDS011;59205;50.610;12.638;2022-11-21T04:59:58;2.63;;;1.42;;
71391;SDS011;59205;50.610;12.638;2022-11-21T05:02:23;2.65;;;1.60;;
71391;SDS011;59205;50.610;12.638;2022-11-21T05:04:49;3.35;;;1.70;;
71391;SDS011;59205;50.610;12.638;2022-11-21T05:07:15;5.38;;;1.80;;
71391;SDS011;59205;50.610;12.638;2022-11-21T05:09:41;3.33;;;1.85;;
71391;SDS011;59205;50.610;12.638;2022-11-21T05:12:10;3.92;;;1.55;;
71391;SDS011;59205;50.610;12.638;2022-11-21T05:14:55;2.10;;;1.75;;
71391;SDS011;59205;50.610;12.638;2022-11-21T05:17:21;3.67;;;1.90;;
71391;SDS011;59205;50.610;12.638;2022-11-21T05:19:46;4.47;;;1.90;;
71391;SDS011;59205;50.610;12.638;2022-11-21T05:22:12;5.70;;;1.70;;
71391;SDS011;59205;50.610;12.638;2022-11-21T05:24:37;38.08;;;19.98;;
71391;SDS011;59205;50.610;12.638;2022-11-21T05:27:03;5.00;;;3.20;;
71391;SDS011;59205;50.610;12.638;2022-11-21T05:29:29;3.00;;;2.00;;
71391;SDS011;59205;50.610;12.638;2022-11-21T05:31:54;5.38;;;2.65;;
71391;SDS011;59205;50.610;12.638;2022-11-21T05:34:20;3.55;;;2.30;;
71391;SDS011;59205;50.610;12.638;2022-11-21T05:36:45;3.13;;;1.90;;
71391;SDS011;59205;50.610;12.638;2022-11-21T05:39:11;2.97;;;1.80;;
71391;SDS011;59205;50.610;12.638;2022-11-21T05:41:36;3.47;;;1.65;;
71391;SDS011;59205;50.610;12.638;2022-11-21T05:44:02;4.93;;;1.85;;
71391;SDS011;59205;50.610;12.638;2022-11-21T05:46:27;3.20;;;1.80;;
71391;SDS011;59205;50.610;12.638;2022-11-21T05:48:53;2.67;;;1.70;;
71391;SDS011;59205;50.610;12.638;2022-11-21T05:51:19;2.95;;;1.70;;
71391;SDS011;59205;50.610;12.638;2022-11-21T05:53:45;3.17;;;1.83;;
71391;SDS011;59205;50.610;12.638;2022-11-21T05:56:13;2.58;;;1.80;;
71391;SDS011;59205;50.610;12.638;2022-11-21T05:58:40;3.58;;;1.88;;
71391;SDS011;59205;50.610;12.638;2022-11-21T06:01:06;2.65;;;1.65;;
71391;SDS011;59205;50.610;12.638;2022-11-21T06:03:39;4.95;;;1.75;;
71391;SDS011;59205;50.610;12.638;2022-11-21T06:08:39;4.88;;;2.53;;
71391;SDS011;59205;50.610;12.638;2022-11-21T06:11:10;5.18;;;2.30;;
71391;SDS011;59205;50.610;12.638;2022-11-21T06:13:37;6.05;;;2.40;;
71391;SDS011;59205;50.610;12.638;2022-11-21T06:16:04;4.32;;;2.40;;
71391;SDS011;59205;50.610;12.638;2022-11-21T06:18:33;35.25;;;16.02;;
71391;SDS011;59205;50.610;12.638;2022-11-21T06:21:00;18.33;;;8.13;;
71391;SDS011;59205;50.610;12.638;2022-11-21T06:23:27;2.50;;;2.10;;
71391;SDS011;59205;50.610;12.638;2022-11-21T06:25:56;3.05;;;1.92;;
71391;SDS011;59205;50.610;12.638;2022-11-21T06:28:23;2.83;;;2.20;;
71391;SDS011;59205;50.610;12.638;2022-11-21T06:30:49;3.33;;;2.00;;
71391;SDS011;59205;50.610;12.638;2022-11-21T06:33:16;3.72;;;2.35;;
71391;SDS011;59205;50.610;12.638;2022-11-21T06:35:42;3.75;;;2.58;;
71391;SDS011;59205;50.610;12.638;2022-11-21T06:38:08;3.50;;;2.40;;
71391;SDS011;59205;50.610;12.638;2022-11-21T06:40:36;3.55;;;2.88;;
71391;SDS011;59205;50.610;12.638;2022-11-21T06:43:02;2.58;;;2.38;;
71391;SDS011;59205;50.610;12.638;2022-11-21T06:45:27;3.05;;;1.90;;
71391;SDS011;59205;50.610;12.638;2022-11-21T06:47:52;2.50;;;1.90;;
71391;SDS011;59205;50.610;12.638;2022-11-21T06:50:18;1.60;;;1.50;;
71391;SDS011;59205;50.610;12.638;2022-11-21T06:52:43;1.17;;;1.02;;
71391;SDS011;59205;50.610;12.638;2022-11-21T06:55:09;1.02;;;0.95;;
71391;SDS011;59205;50.610;12.638;2022-11-21T06:57:35;0.80;;;0.80;;
71391;SDS011;59205;50.610;12.638;2022-11-21T07:00:00;1.00;;;0.90;;
71391;SDS011;59205;50.610;12.638;2022-11-21T07:02:26;1.10;;;1.00;;
71391;SDS011;59205;50.610;12.638;2022-11-21T07:04:51;1.40;;;1.15;;
71391;SDS011;59205;50.610;12.638;2022-11-21T07:07:17;1.40;;;1.30;;
71391;SDS011;59205;50.610;12.638;2022-11-21T07:09:43;1.27;;;1.17;;
71391;SDS011;59205;50.610;12.638;2022-11-21T07:12:08;1.70;;;1.20;;
71391;SDS011;59205;50.610;12.638;2022-11-21T07:14:53;1.40;;;1.30;;
71391;SDS011;59205;50.610;12.638;2022-11-21T07:17:18;1.55;;;1.33;;
71391;SDS011;59205;50.610;12.638;2022-11-21T07:19:44;5.50;;;2.15;;
71391;SDS011;59205;50.610;12.638;2022-11-21T07:22:09;2.40;;;1.70;;
71391;SDS011;59205;50.610;12.638;2022-11-21T07:24:35;2.17;;;1.83;;
71391;SDS011;59205;50.610;12.638;2022-11-21T07:27:00;58.38;;;25.75;;
71391;SDS011;59205;50.610;12.638;2022-11-21T07:29:26;2.47;;;1.98;;
71391;SDS011;59205;50.610;12.638;2022-11-21T07:31:51;2.17;;;1.83;;
71391;SDS011;59205;50.610;12.638;2022-11-21T07:34:17;2.03;;;1.70;;
71391;SDS011;59205;50.610;12.638;2022-11-21T07:36:42;2.40;;;1.60;;
71391;SDS011;59205;50.610;12.638;2022-11-21T07:39:07;2.72;;;1.55;;
71391;SDS011;59205;50.610;12.638;2022-11-21T07:41:33;2.38;;;1.85;;
71391;SDS011;59205;50.610;12.638;2022-11-21T07:43:58;2.05;;;1.80;;
71391;SDS011;59205;50.610;12.638;2022-11-21T07:46:24;3.17;;;2.03;;
71391;SDS011;59205;50.610;12.638;2022-11-21T07:48:49;2.60;;;2.10;;
71391;SDS011;59205;50.610;12.638;2022-11-21T07:51:15;2.55;;;2.10;;
71391;SDS011;59205;50.610;12.638;2022-11-21T07:53:40;4.38;;;2.72;;
71391;SDS011;59205;50.610;12.638;2022-11-21T07:56:06;7.22;;;4.25;;
71391;SDS011;59205;50.610;12.638;2022-11-21T07:58:33;90.95;;;40.40;;
71391;SDS011;59205;50.610;12.638;2022-11-21T08:01:03;11.02;;;6.32;;
71391;SDS011;59205;50.610;12.638;2022-11-21T08:03:33;8.77;;;5.22;;
71391;SDS011;59205;50.610;12.638;2022-11-21T08:06:02;8.95;;;5.38;;
71391;SDS011;59205;50.610;12.638;2022-11-21T08:08:29;10.65;;;5.68;;
71391;SDS011;59205;50.610;12.638;2022-11-21T08:10:54;10.35;;;5.82;;
71391;SDS011;59205;50.610;12.638;2022-11-21T08:13:20;10.75;;;5.95;;
71391;SDS011;59205;50.610;12.638;2022-11-21T08:15:45;13.30;;;7.45;;
71391;SDS011;59205;50.610;12.638;2022-11-21T08:18:14;16.05;;;8.68;;
71391;SDS011;59205;50.610;12.638;2022-11-21T08:20:44;16.20;;;7.85;;
71391;SDS011;59205;50.610;12.638;2022-11-21T08:23:09;17.33;;;9.10;;
71391;SDS011;59205;50.610;12.638;2022-11-21T08:25:36;147.13;;;11.90;;
71391;SDS011;59205;50.610;12.638;2022-11-21T08:28:02;287.38;;;14.13;;
71391;SDS011;59205;50.610;12.638;2022-11-21T08:30:29;473.67;;;18.30;;
71391;SDS011;59205;50.610;12.638;2022-11-21T08:32:56;148.35;;;13.32;;
71391;SDS011;59205;50.610;12.638;2022-11-21T08:35:23;75.57;;;13.10;;
71391;SDS011;59205;50.610;12.638;2022-11-21T08:37:53;64.85;;;13.55;;
71391;SDS011;59205;50.610;12.638;2022-11-21T08:40:23;56.08;;;14.75;;
71391;SDS011;59205;50.610;12.638;2022-11-21T08:42:55;278.48;;;17.90;;
71391;SDS011;59205;50.610;12.638;2022-11-21T08:45:24;406.00;;;20.52;;
71391;SDS011;59205;50.610;12.638;2022-11-21T08:47:52;286.80;;;20.08;;
71391;SDS011;59205;50.610;12.638;2022-11-21T08:50:18;213.75;;;18.33;;
71391;SDS011;59205;50.610;12.638;2022-11-21T08:52:44;294.58;;;20.80;;
71391;SDS011;59205;50.610;12.638;2022-11-21T08:55:09;188.45;;;19.20;;
71391;SDS011;59205;50.610;12.638;2022-11-21T08:57:38;63.47;;;17.45;;
71391;SDS011;59205;50.610;12.638;2022-11-21T09:00:05;116.80;;;17.42;;
71391;SDS011;59205;50.610;12.638;2022-11-21T09:02:33;362.05;;;20.98;;
71391;SDS011;59205;50.610;12.638;2022-11-21T09:04:59;225.75;;;19.38;;
71391;SDS011;59205;50.610;12.638;2022-11-21T09:07:25;150.18;;;19.90;;
71391;SDS011;59205;50.610;12.638;2022-11-21T09:09:50;313.52;;;21.15;;
71391;SDS011;59205;50.610;12.638;2022-11-21T09:12:16;82.72;;;17.40;;
71391;SDS011;59205;50.610;12.638;2022-11-21T09:14:44;105.53;;;18.45;;
71391;SDS011;59205;50.610;12.638;2022-11-21T09:17:29;54.67;;;17.67;;
71391;SDS011;59205;50.610;12.638;2022-11-21T09:20:13;50.90;;;18.33;;
71391;SDS011;59205;50.610;12.638;2022-11-21T09:22:38;56.00;;;17.52;;
71391;SDS011;59205;50.610;12.638;2022-11-21T09:25:04;44.33;;;16.88;;
71391;SDS011;59205;50.610;12.638;2022-11-21T09:27:30;52.13;;;17.35;;
71391;SDS011;59205;50.610;12.638;2022-11-21T09:29:55;55.83;;;17.73;;
71391;SDS011;59205;50.610;12.638;2022-11-21T09:32:21;48.17;;;16.90;;
71391;SDS011;59205;50.610;12.638;2022-11-21T09:34:47;94.20;;;16.83;;
71391;SDS011;59205;50.610;12.638;2022-11-21T09:37:12;53.13;;;16.88;;
71391;SDS011;59205;50.610;12.638;2022-11-21T09:39:38;55.80;;;17.50;;
71391;SDS011;59205;50.610;12.638;2022-11-21T09:48:12;108.65;;;16.77;;
71391;SDS011;59205;50.610;12.638;2022-11-21T09:50:43;49.92;;;17.60;;
71391;SDS011;59205;50.610;12.638;2022-11-21T09:55:51;52.03;;;16.88;;
71391;SDS011;59205;50.610;12.638;2022-11-21T09:59:11;81.07;;;18.15;;
71391;SDS011;59205;50.610;12.638;2022-11-21T10:01:35;100.93;;;17.90;;
71391;SDS011;59205;50.610;12.638;2022-11-21T10:04:01;64.68;;;17.33;;
71391;SDS011;59205;50.610;12.638;2022-11-21T10:06:31;69.68;;;18.10;;
71391;SDS011;59205;50.610;12.638;2022-11-21T10:15:09;83.78;;;16.67;;
71391;SDS011;59205;50.610;12.638;2022-11-21T10:31:43;45.85;;;16.15;;
71391;SDS011;59205;50.610;12.638;2022-11-21T10:34:56;61.03;;;16.85;;
71391;SDS011;59205;50.610;12.638;2022-11-21T10:37:02;48.60;;;15.98;;
71391;SDS011;59205;50.610;12.638;2022-11-21T10:39:40;62.33;;;17.05;;
71391;SDS011;59205;50.610;12.638;2022-11-21T10:44:53;52.67;;;15.80;;
71391;SDS011;59205;50.610;12.638;2022-11-21T10:47:37;118.60;;;17.88;;
71391;SDS011;59205;50.610;12.638;2022-11-21T10:52:46;84.35;;;17.05;;
71391;SDS011;59205;50.610;12.638;2022-11-21T10:55:14;93.18;;;18.60;;
71391;SDS011;59205;50.610;12.638;2022-11-21T10:57:45;118.10;;;18.63;;
71391;SDS011;59205;50.610;12.638;2022-11-21T11:02:38;184.23;;;20.08;;
71391;SDS011;59205;50.610;12.638;2022-11-21T11:05:24;73.95;;;18.95;;
71391;SDS011;59205;50.610;12.638;2022-11-21T11:08:00;107.53;;;20.35;;
71391;SDS011;59205;50.610;12.638;2022-11-21T11:10:26;176.25;;;19.98;;
71391;SDS011;59205;50.610;12.638;2022-11-21T11:12:53;169.52;;;20.13;;
71391;SDS011;59205;50.610;12.638;2022-11-21T11:15:39;94.70;;;18.13;;
71391;SDS011;59205;50.610;12.638;2022-11-21T11:20:45;132.43;;;18.98;;
71391;SDS011;59205;50.610;12.638;2022-11-21T11:28:22;261.92;;;19.65;;
71391;SDS011;59205;50.610;12.638;2022-11-21T11:30:48;136.55;;;16.42;;
71391;SDS011;59205;50.610;12.638;2022-11-21T11:39:05;90.50;;;17.40;;
71391;SDS011;59205;50.610;12.638;2022-11-21T11:47:37;200.70;;;21.08;;
71391;SDS011;59205;50.610;12.638;2022-11-21T11:50:25;192.45;;;19.58;;
71391;SDS011;59205;50.610;12.638;2022-11-21T11:53:00;390.80;;;22.45;;
71391;SDS011;59205;50.610;12.638;2022-11-21T11:55:45;250.27;;;21.05;;
71391;SDS011;59205;50.610;12.638;2022-11-21T12:01:12;419.85;;;21.65;;
71391;SDS011;59205;50.610;12.638;2022-11-21T12:03:48;411.25;;;21.80;;
71391;SDS011;59205;50.610;12.638;2022-11-21T12:06:25;147.68;;;19.73;;
71391;SDS011;59205;50.610;12.638;2022-11-21T12:09:10;193.00;;;19.67;;
71391;SDS011;59205;50.610;12.638;2022-11-21T12:11:54;117.00;;;18.65;;
71391;SDS011;59205;50.610;12.638;2022-11-21T12:14:49;170.37;;;18.63;;
71391;SDS011;59205;50.610;12.638;2022-11-21T12:20:51;167.40;;;21.17;;
71391;SDS011;59205;50.610;12.638;2022-11-21T12:23:30;304.70;;;20.83;;
71391;SDS011;59205;50.610;12.638;2022-11-21T12:34:12;368.73;;;22.40;;
71391;SDS011;59205;50.610;12.638;2022-11-21T12:36:48;236.85;;;18.45;;
71391;SDS011;59205;50.610;12.638;2022-11-21T12:42:24;123.63;;;16.77;;
71391;SDS011;59205;50.610;12.638;2022-11-21T12:48:14;161.80;;;16.42;;
71391;SDS011;59205;50.610;12.638;2022-11-21T12:51:14;98.78;;;15.85;;
71391;SDS011;59205;50.610;12.638;2022-11-21T12:54:31;81.38;;;14.40;;
71391;SDS011;59205;50.610;12.638;2022-11-21T12:57:42;147.55;;;15.70;;
71391;SDS011;59205;50.610;12.638;2022-11-21T13:05:39;295.10;;;18.85;;
71391;SDS011;59205;50.610;12.638;2022-11-21T13:08:20;161.73;;;18.17;;
71391;SDS011;59205;50.610;12.638;2022-11-21T13:11:09;223.23;;;19.08;;
71391;SDS011;59205;50.610;12.638;2022-11-21T13:14:16;129.40;;;16.48;;
71391;SDS011;59205;50.610;12.638;2022-11-21T13:16:56;232.95;;;17.73;;
71391;SDS011;59205;50.610;12.638;2022-11-21T13:19:36;83.00;;;17.30;;
71391;SDS011;59205;50.610;12.638;2022-11-21T13:27:36;232.57;;;18.67;;
71391;SDS011;59205;50.610;12.638;2022-11-21T13:35:01;54.67;;;16.25;;
71391;SDS011;59205;50.610;12.638;2022-11-21T13:45:44;43.58;;;17.55;;
71391;SDS011;59205;50.610;12.638;2022-11-21T13:53:44;50.47;;;18.02;;
71391;SDS011;59205;50.610;12.638;2022-11-21T13:56:38;106.20;;;18.42;;
71391;SDS011;59205;50.610;12.638;2022-11-21T13:59:40;54.38;;;18.23;;
71391;SDS011;59205;50.610;12.638;2022-11-21T14:02:57;48.85;;;17.60;;
71391;SDS011;59205;50.610;12.638;2022-11-21T14:10:45;57.42;;;21.58;;
71391;SDS011;59205;50.610;12.638;2022-11-21T14:13:28;62.17;;;22.63;;
71391;SDS011;59205;50.610;12.638;2022-11-21T14:18:35;66.22;;;23.10;;
71391;SDS011;59205;50.610;12.638;2022-11-21T14:21:02;73.22;;;20.35;;
71391;SDS011;59205;50.610;12.638;2022-11-21T14:23:29;224.60;;;22.35;;
71391;SDS011;59205;50.610;12.638;2022-11-21T14:26:01;125.47;;;20.48;;
71391;SDS011;59205;50.610;12.638;2022-11-21T14:28:30;68.10;;;21.38;;
71391;SDS011;59205;50.610;12.638;2022-11-21T14:31:04;182.88;;;19.92;;
71391;SDS011;59205;50.610;12.638;2022-11-21T14:33:32;91.30;;;18.48;;
71391;SDS011;59205;50.610;12.638;2022-11-21T14:43:49;50.78;;;19.05;;
71391;SDS011;59205;50.610;12.638;2022-11-21T14:46:20;50.40;;;18.55;;
71391;SDS011;59205;50.610;12.638;2022-11-21T14:48:46;54.38;;;19.95;;
71391;SDS011;59205;50.610;12.638;2022-11-21T14:51:15;54.40;;;20.05;;
71391;SDS011;59205;50.610;12.638;2022-11-21T14:53:43;59.42;;;20.88;;
71391;SDS011;59205;50.610;12.638;2022-11-21T14:56:11;55.80;;;19.73;;
71391;SDS011;59205;50.610;12.638;2022-11-21T14:58:54;61.95;;;20.30;;
71391;SDS011;59205;50.610;12.638;2022-11-21T15:01:22;59.22;;;20.60;;
71391;SDS011;59205;50.610;12.638;2022-11-21T15:03:53;70.13;;;22.73;;
71391;SDS011;59205;50.610;12.638;2022-11-21T15:06:25;69.00;;;22.40;;
71391;SDS011;59205;50.610;12.638;2022-11-21T15:08:52;69.88;;;23.27;;
71391;SDS011;59205;50.610;12.638;2022-11-21T15:11:19;77.57;;;24.52;;
71391;SDS011;59205;50.610;12.638;2022-11-21T15:13:49;75.07;;;24.73;;
71391;SDS011;59205;50.610;12.638;2022-11-21T15:16:21;67.78;;;23.42;;
71391;SDS011;59205;50.610;12.638;2022-11-21T15:18:48;70.63;;;23.83;;
71391;SDS011;59205;50.610;12.638;2022-11-21T15:21:13;72.45;;;24.77;;
71391;SDS011;59205;50.610;12.638;2022-11-21T15:23:40;66.85;;;23.50;;
71391;SDS011;59205;50.610;12.638;2022-11-21T15:26:30;125.47;;;50.35;;
71391;SDS011;59205;50.610;12.638;2022-11-21T15:28:55;174.88;;;73.03;;
71391;SDS011;59205;50.610;12.638;2022-11-21T15:31:22;84.57;;;27.13;;
71391;SDS011;59205;50.610;12.638;2022-11-21T15:36:23;77.50;;;25.27;;
71391;SDS011;59205;50.610;12.638;2022-11-21T15:38:50;80.90;;;26.45;;
71391;SDS011;59205;50.610;12.638;2022-11-21T15:48:50;73.65;;;26.15;;
71391;SDS011;59205;50.610;12.638;2022-11-21T15:51:18;80.25;;;26.70;;
71391;SDS011;59205;50.610;12.638;2022-11-21T15:53:45;76.75;;;25.90;;
71391;SDS011;59205;50.610;12.638;2022-11-21T15:56:11;72.28;;;24.27;;
71391;SDS011;59205;50.610;12.638;2022-11-21T15:58:38;87.43;;;26.70;;
71391;SDS011;59205;50.610;12.638;2022-11-21T16:01:04;92.93;;;28.15;;
71391;SDS011;59205;50.610;12.638;2022-11-21T16:03:30;98.53;;;28.90;;
71391;SDS011;59205;50.610;12.638;2022-11-21T16:05:56;287.02;;;111.55;;
71391;SDS011;59205;50.610;12.638;2022-11-21T16:08:21;203.90;;;74.68;;
71391;SDS011;59205;50.610;12.638;2022-11-21T16:10:46;123.72;;;34.88;;
71391;SDS011;59205;50.610;12.638;2022-11-21T16:13:12;116.60;;;33.30;;
71391;SDS011;59205;50.610;12.638;2022-11-21T16:15:38;115.75;;;32.20;;
71391;SDS011;59205;50.610;12.638;2022-11-21T16:18:03;113.10;;;31.10;;
71391;SDS011;59205;50.610;12.638;2022-11-21T16:20:29;117.68;;;33.40;;
71391;SDS011;59205;50.610;12.638;2022-11-21T16:22:55;121.45;;;34.10;;
71391;SDS011;59205;50.610;12.638;2022-11-21T16:25:20;130.38;;;35.55;;
71391;SDS011;59205;50.610;12.638;2022-11-21T16:27:46;128.43;;;32.97;;
71391;SDS011;59205;50.610;12.638;2022-11-21T16:30:11;129.48;;;34.45;;
71391;SDS011;59205;50.610;12.638;2022-11-21T16:32:37;117.45;;;32.67;;
71391;SDS011;59205;50.610;12.638;2022-11-21T16:35:03;124.68;;;33.00;;
71391;SDS011;59205;50.610;12.638;2022-11-21T16:37:32;139.02;;;34.03;;
71391;SDS011;59205;50.610;12.638;2022-11-21T16:39:58;123.85;;;34.08;;
71391;SDS011;59205;50.610;12.638;2022-11-21T16:42:23;121.53;;;34.47;;
71391;SDS011;59205;50.610;12.638;2022-11-21T16:44:49;127.88;;;37.22;;
71391;SDS011;59205;50.610;12.638;2022-11-21T16:47:14;141.10;;;37.28;;
71391;SDS011;59205;50.610;12.638;2022-11-21T16:49:40;153.57;;;38.78;;
71391;SDS011;59205;50.610;12.638;2022-11-21T16:52:10;148.95;;;36.38;;
71391;SDS011;59205;50.610;12.638;2022-11-21T16:54:36;147.85;;;37.83;;
71391;SDS011;59205;50.610;12.638;2022-11-21T16:57:02;129.48;;;36.60;;